Easington, United Kingdom
Current Conditions -  °F | °C
As of 7:50 PM on Monday 24 Nov 2014 (Local Time) from EGXS Reporting Station
Clear Clear  
Wind Chill: 32°   Ceiling: Unl
Heat Index: 37°   Visibility: 3mi
Dew Point: 37°   Wind: 7mph
Humidity: 100%   Direction: 210°SSW
Pressure: 30.3"   Gusts: NA
Location:  53.65°N, 0.13°E
Report Text: EGXS 241950Z AUTO 21006KT 5000 // NCD 03/03 Q1026
Loading
Personal Weather Stations






























Interactive Weather Map New forecast layout! Learn more

10-Day Weather Forecast

Advertisements
Track Severe Weather on mobile